Time;durP1;ratioP1;P1;durP2;ratioP2;P2;SDS_P1;SDS_P2;PMS_P1;PMS_P2;Temp;Humidity;BMP_temperature;BMP_pressure;BME280_temperature;BME280_humidity;BME280_pressure;Samples;Min_cycle;Max_cycle;Signal;HPM_P1;HPM_P2
2023/08/15 00:01:56;;;;;;;8.15;5.75;;;;;;;;;;4916086;29;20059;-93
2023/08/15 00:04:23;;;;;;;6.22;5.00;;;;;;;;;;4914844;29;20067;-93
2023/08/15 00:06:51;;;;;;;8.73;5.53;;;;;;;;;;4956658;29;20050;-92
2023/08/15 00:09:21;;;;;;;6.50;4.80;;;;;;;;;;4933683;29;20434;-92
2023/08/15 00:11:49;;;;;;;5.13;4.63;;;;;;;;;;4951475;29;20137;-92
2023/08/15 00:14:18;;;;;;;6.28;4.38;;;;;;;;;;4940859;29;20054;-93
2023/08/15 00:16:47;;;;;;;10.82;5.30;;;;;;;;;;4925441;29;20078;-93
2023/08/15 00:19:14;;;;;;;6.00;4.80;;;;;;;;;;4940889;29;20399;-93
2023/08/15 00:21:46;;;;;;;12.67;7.07;;;;;;;;;;4922051;29;20059;-93
2023/08/15 00:24:14;;;;;;;7.68;5.93;;;;;;;;;;4933259;29;20047;-91
2023/08/15 00:26:41;;;;;;;11.02;6.70;;;;;;;;;;4943040;29;20050;-93
2023/08/15 00:29:08;;;;;;;9.88;7.07;;;;;;;;;;4921499;29;20400;-94
2023/08/15 00:31:36;;;;;;;12.00;5.80;;;;;;;;;;4923826;29;20063;-93
2023/08/15 00:34:05;;;;;;;7.55;5.70;;;;;;;;;;4921356;29;20051;-92
2023/08/15 00:36:34;;;;;;;7.70;6.78;;;;;;;;;;4938868;29;20043;-93
2023/08/15 00:39:05;;;;;;;11.45;6.50;;;;;;;;;;4923286;29;20055;-93
2023/08/15 00:41:37;;;;;;;7.13;4.87;;;;;;;;;;4939925;29;20055;-93
2023/08/15 00:44:04;;;;;;;7.20;4.82;;;;;;;;;;4921941;29;20047;-93
2023/08/15 00:46:32;;;;;;;5.70;5.13;;;;;;;;;;4923561;28;20058;-92
2023/08/15 00:48:59;;;;;;;6.82;4.55;;;;;;;;;;4935252;29;20047;-93
2023/08/15 00:51:28;;;;;;;4.90;4.45;;;;;;;;;;4955474;29;20051;-92
2023/08/15 00:53:57;;;;;;;11.50;5.18;;;;;;;;;;4916963;29;20502;-93
2023/08/15 00:56:27;;;;;;;5.70;5.10;;;;;;;;;;4920272;29;20051;-92
2023/08/15 00:58:54;;;;;;;6.00;4.30;;;;;;;;;;4912320;29;20051;-92
2023/08/15 01:01:24;;;;;;;7.85;4.97;;;;;;;;;;4914145;29;20066;-93
2023/08/15 01:03:52;;;;;;;5.03;4.20;;;;;;;;;;4932791;29;20050;-92
2023/08/15 01:06:20;;;;;;;5.72;4.93;;;;;;;;;;4934934;29;20070;-92
2023/08/15 01:08:49;;;;;;;5.93;5.32;;;;;;;;;;4938619;29;20077;-93
2023/08/15 01:11:19;;;;;;;13.60;6.70;;;;;;;;;;4919020;29;20051;-92
2023/08/15 01:13:53;;;;;;;10.30;5.20;;;;;;;;;;4926403;29;20063;-93
2023/08/15 01:16:24;;;;;;;7.57;5.43;;;;;;;;;;4932383;29;20052;-92
2023/08/15 01:18:56;;;;;;;9.88;4.95;;;;;;;;;;4938723;29;20046;-92
2023/08/15 01:21:26;;;;;;;6.90;5.75;;;;;;;;;;4932148;29;20055;-92
2023/08/15 01:23:56;;;;;;;6.35;5.78;;;;;;;;;;4915977;29;20059;-91
2023/08/15 01:26:24;;;;;;;5.35;4.85;;;;;;;;;;4908089;29;20055;-92
2023/08/15 01:28:51;;;;;;;8.32;5.72;;;;;;;;;;4910575;29;20058;-92
2023/08/15 01:31:22;;;;;;;12.30;5.32;;;;;;;;;;4924789;29;20051;-92
2023/08/15 01:33:56;;;;;;;7.78;5.00;;;;;;;;;;4925228;28;20052;-93
2023/08/15 01:36:29;;;;;;;7.97;5.18;;;;;;;;;;4944183;29;20533;-92
2023/08/15 01:39:01;;;;;;;6.78;5.28;;;;;;;;;;4915897;29;20054;-92
2023/08/15 01:41:30;;;;;;;8.50;5.82;;;;;;;;;;4915653;29;20043;-92
2023/08/15 01:44:00;;;;;;;7.85;5.28;;;;;;;;;;4913113;29;20058;-92
2023/08/15 01:46:30;;;;;;;13.68;7.05;;;;;;;;;;4917926;29;20043;-93
2023/08/15 01:48:59;;;;;;;9.85;5.15;;;;;;;;;;4924760;29;20055;-91
2023/08/15 01:51:29;;;;;;;9.82;5.28;;;;;;;;;;4949277;29;20047;-93
2023/08/15 01:53:57;;;;;;;5.10;4.60;;;;;;;;;;4923523;29;20043;-92
2023/08/15 01:56:25;;;;;;;11.02;5.43;;;;;;;;;;4931888;29;20048;-92
2023/08/15 01:58:55;;;;;;;11.52;5.78;;;;;;;;;;4920946;29;20055;-93
2023/08/15 02:01:23;;;;;;;6.22;5.60;;;;;;;;;;4955737;29;20054;-92
2023/08/15 02:03:54;;;;;;;8.45;5.53;;;;;;;;;;4931643;29;20479;-91
2023/08/15 02:06:21;;;;;;;5.30;4.80;;;;;;;;;;4911821;29;20515;-93
2023/08/15 02:08:48;;;;;;;6.95;5.72;;;;;;;;;;4933452;29;20051;-91
2023/08/15 02:11:19;;;;;;;10.23;6.13;;;;;;;;;;4951318;29;20047;-92
2023/08/15 02:13:46;;;;;;;6.30;5.68;;;;;;;;;;4938885;29;20458;-92
2023/08/15 02:16:17;;;;;;;7.85;5.45;;;;;;;;;;4920060;29;20146;-93
2023/08/15 02:18:47;;;;;;;13.40;5.93;;;;;;;;;;4921576;29;20063;-92
2023/08/15 02:21:18;;;;;;;11.15;5.70;;;;;;;;;;4927890;29;20063;-92
2023/08/15 02:23:45;;;;;;;9.60;6.05;;;;;;;;;;4926067;29;20056;-93
2023/08/15 02:26:13;;;;;;;7.93;5.97;;;;;;;;;;4949628;29;20059;-93
2023/08/15 02:28:42;;;;;;;7.10;5.90;;;;;;;;;;4924027;29;20072;-92
2023/08/15 02:31:10;;;;;;;10.18;6.88;;;;;;;;;;4912140;29;20047;-92
2023/08/15 02:33:38;;;;;;;7.13;5.43;;;;;;;;;;4953060;29;20051;-91
2023/08/15 02:36:06;;;;;;;6.97;5.05;;;;;;;;;;4936381;29;20062;-92
2023/08/15 02:38:38;;;;;;;6.35;4.95;;;;;;;;;;4927995;29;20058;-93
2023/08/15 02:41:06;;;;;;;6.63;5.03;;;;;;;;;;4902653;29;20067;-92
2023/08/15 02:43:34;;;;;;;8.65;5.53;;;;;;;;;;4926263;29;20074;-92
2023/08/15 02:46:03;;;;;;;5.55;5.05;;;;;;;;;;4910613;29;20419;-92
2023/08/15 02:48:30;;;;;;;12.40;6.28;;;;;;;;;;4922348;29;20048;-93
2023/08/15 02:50:57;;;;;;;6.38;5.70;;;;;;;;;;4935801;29;20054;-92
2023/08/15 02:53:27;;;;;;;6.90;5.53;;;;;;;;;;4920273;29;20047;-92
2023/08/15 02:55:54;;;;;;;9.55;5.30;;;;;;;;;;4937257;29;20063;-92
2023/08/15 02:58:22;;;;;;;6.28;5.20;;;;;;;;;;4907774;29;20055;-93
2023/08/15 03:00:51;;;;;;;6.15;5.53;;;;;;;;;;4912618;29;20457;-92
2023/08/15 03:03:20;;;;;;;4.88;4.38;;;;;;;;;;4931764;28;20063;-92
2023/08/15 03:05:50;;;;;;;8.07;6.28;;;;;;;;;;4915596;29;20052;-92
2023/08/15 03:08:17;;;;;;;10.93;6.85;;;;;;;;;;4918353;29;20043;-92
2023/08/15 03:10:47;;;;;;;11.15;6.78;;;;;;;;;;4928584;29;20056;-92
2023/08/15 03:13:15;;;;;;;10.98;7.22;;;;;;;;;;4936135;29;20051;-91
2023/08/15 03:15:42;;;;;;;7.32;5.63;;;;;;;;;;4925541;29;20047;-92
2023/08/15 03:18:09;;;;;;;6.13;5.30;;;;;;;;;;4919807;29;20506;-92
2023/08/15 03:20:38;;;;;;;5.95;5.35;;;;;;;;;;4933224;29;20047;-92
2023/08/15 03:23:06;;;;;;;8.35;6.55;;;;;;;;;;4937898;29;20051;-93
2023/08/15 03:25:36;;;;;;;9.40;5.40;;;;;;;;;;4937432;29;20058;-92
2023/08/15 03:28:04;;;;;;;11.90;5.60;;;;;;;;;;4918573;29;20059;-91
2023/08/15 03:30:31;;;;;;;15.27;6.20;;;;;;;;;;4923269;29;20062;-93
2023/08/15 03:33:00;;;;;;;6.55;5.95;;;;;;;;;;4953675;29;20059;-93
2023/08/15 03:35:28;;;;;;;12.07;6.18;;;;;;;;;;4956080;29;20047;-90
2023/08/15 03:37:57;;;;;;;7.22;5.68;;;;;;;;;;4917558;29;20063;-93
2023/08/15 03:40:27;;;;;;;7.40;5.72;;;;;;;;;;4937830;29;20051;-92
2023/08/15 03:42:54;;;;;;;10.48;5.88;;;;;;;;;;4943281;29;20063;-90
2023/08/15 03:45:22;;;;;;;8.75;5.60;;;;;;;;;;4929745;28;20031;-90
2023/08/15 03:47:51;;;;;;;9.35;6.35;;;;;;;;;;4952652;28;20044;-89
2023/08/15 03:50:19;;;;;;;6.07;5.45;;;;;;;;;;4949166;28;20059;-91
2023/08/15 03:52:46;;;;;;;4.85;4.45;;;;;;;;;;4945909;29;20043;-91
2023/08/15 03:55:15;;;;;;;8.93;6.43;;;;;;;;;;4944516;29;20047;-91
2023/08/15 03:57:42;;;;;;;11.18;6.32;;;;;;;;;;4917231;29;20058;-92
2023/08/15 04:00:13;;;;;;;12.80;7.13;;;;;;;;;;4912779;29;20430;-92
2023/08/15 04:02:43;;;;;;;6.97;6.20;;;;;;;;;;4938814;29;20062;-92
2023/08/15 04:05:14;;;;;;;10.52;6.97;;;;;;;;;;4917163;29;20055;-93
2023/08/15 04:07:41;;;;;;;13.32;6.95;;;;;;;;;;4915923;29;20523;-92
2023/08/15 04:10:11;;;;;;;5.97;5.47;;;;;;;;;;4914100;29;20062;-92
2023/08/15 04:12:44;;;;;;;8.65;5.45;;;;;;;;;;4939368;29;20051;-92
2023/08/15 04:15:12;;;;;;;13.30;5.35;;;;;;;;;;4911891;29;20404;-92
2023/08/15 04:17:40;;;;;;;10.75;6.35;;;;;;;;;;4919467;29;20534;-92
2023/08/15 04:20:09;;;;;;;6.43;5.82;;;;;;;;;;4934298;29;20074;-92
2023/08/15 04:22:38;;;;;;;8.02;5.65;;;;;;;;;;4915990;28;20535;-92
2023/08/15 04:25:07;;;;;;;15.07;6.25;;;;;;;;;;4935438;29;20046;-92
2023/08/15 04:27:37;;;;;;;8.18;6.20;;;;;;;;;;4932336;29;20043;-93
2023/08/15 04:30:09;;;;;;;6.90;5.78;;;;;;;;;;4913966;29;20540;-91
2023/08/15 04:32:41;;;;;;;16.85;8.35;;;;;;;;;;4932746;29;20063;-92
2023/08/15 04:35:10;;;;;;;10.00;5.72;;;;;;;;;;4915630;29;20055;-92
2023/08/15 04:37:41;;;;;;;7.22;6.20;;;;;;;;;;4923541;29;20047;-91
2023/08/15 04:40:11;;;;;;;7.75;6.22;;;;;;;;;;4936807;29;20055;-93
2023/08/15 04:42:39;;;;;;;9.05;6.72;;;;;;;;;;4946109;29;20050;-91
2023/08/15 04:45:10;;;;;;;13.18;7.07;;;;;;;;;;4947238;29;20063;-92
2023/08/15 04:47:37;;;;;;;8.63;6.95;;;;;;;;;;4957318;29;20058;-91
2023/08/15 04:50:06;;;;;;;8.27;5.75;;;;;;;;;;4922640;29;20086;-94
2023/08/15 04:52:36;;;;;;;6.53;5.50;;;;;;;;;;4924302;29;20059;-92
2023/08/15 04:55:03;;;;;;;6.47;5.63;;;;;;;;;;4937707;29;20055;-91
2023/08/15 04:57:33;;;;;;;5.78;5.22;;;;;;;;;;4922947;29;20509;-91
2023/08/15 05:00:04;;;;;;;11.88;5.45;;;;;;;;;;4941406;29;20051;-92
2023/08/15 05:02:36;;;;;;;8.52;6.95;;;;;;;;;;4932596;29;20426;-91
2023/08/15 05:05:09;;;;;;;7.18;6.07;;;;;;;;;;4918172;28;20070;-92
2023/08/15 05:07:37;;;;;;;7.72;6.10;;;;;;;;;;4939766;29;20055;-92
2023/08/15 05:10:08;;;;;;;11.95;6.00;;;;;;;;;;4917318;29;20411;-91
2023/08/15 05:12:36;;;;;;;6.03;5.47;;;;;;;;;;4930401;29;20054;-91
2023/08/15 05:15:07;;;;;;;8.95;6.10;;;;;;;;;;4936780;29;20055;-93
2023/08/15 05:17:36;;;;;;;12.95;6.45;;;;;;;;;;4921027;29;20048;-93
2023/08/15 05:20:05;;;;;;;8.35;6.35;;;;;;;;;;4927485;29;20052;-92
2023/08/15 05:22:33;;;;;;;8.13;5.88;;;;;;;;;;4926448;29;20051;-92
2023/08/15 05:25:00;;;;;;;6.40;5.28;;;;;;;;;;4943309;29;20062;-92
2023/08/15 05:27:29;;;;;;;8.50;6.68;;;;;;;;;;4933516;29;20059;-92
2023/08/15 05:29:59;;;;;;;6.38;5.63;;;;;;;;;;4951472;29;20047;-92
2023/08/15 05:32:26;;;;;;;5.40;4.80;;;;;;;;;;4929154;29;20047;-92
2023/08/15 05:34:58;;;;;;;5.72;4.43;;;;;;;;;;4946889;29;20051;-93
2023/08/15 05:37:28;;;;;;;5.38;3.95;;;;;;;;;;4952744;29;20050;-92
2023/08/15 05:39:55;;;;;;;10.48;6.00;;;;;;;;;;4929127;29;20047;-93
2023/08/15 05:42:22;;;;;;;5.35;3.78;;;;;;;;;;4933415;29;20055;-91
2023/08/15 05:44:50;;;;;;;4.47;4.07;;;;;;;;;;4964747;29;20610;-92
2023/08/15 05:47:19;;;;;;;5.32;4.80;;;;;;;;;;4974446;28;20053;-91
2023/08/15 05:49:46;;;;;;;7.28;5.13;;;;;;;;;;4952124;29;20055;-93
2023/08/15 05:52:15;;;;;;;4.30;3.90;;;;;;;;;;4940875;29;20052;-93
2023/08/15 05:54:45;;;;;;;8.55;4.72;;;;;;;;;;4926487;29;20330;-93
2023/08/15 05:57:17;;;;;;;4.55;4.15;;;;;;;;;;4948933;28;20052;-91
2023/08/15 05:59:47;;;;;;;5.05;4.47;;;;;;;;;;4950042;29;20049;-91
2023/08/15 06:02:14;;;;;;;4.85;3.78;;;;;;;;;;4953957;29;20050;-93
2023/08/15 06:04:42;;;;;;;11.70;4.97;;;;;;;;;;4946942;29;20057;-92
2023/08/15 06:07:09;;;;;;;5.55;4.25;;;;;;;;;;4933687;29;20063;-91
2023/08/15 06:09:41;;;;;;;4.80;4.28;;;;;;;;;;4961317;28;20055;-91
2023/08/15 06:12:09;;;;;;;10.07;4.90;;;;;;;;;;4971242;28;20035;-91
2023/08/15 06:14:41;;;;;;;4.38;3.95;;;;;;;;;;4960961;28;20027;-91
2023/08/15 06:17:12;;;;;;;10.07;5.07;;;;;;;;;;4974139;28;20043;-91
2023/08/15 06:19:39;;;;;;;7.28;5.50;;;;;;;;;;4979234;28;20027;-90
2023/08/15 06:22:06;;;;;;;13.32;4.72;;;;;;;;;;4978477;28;20039;-91
2023/08/15 06:24:34;;;;;;;5.22;4.72;;;;;;;;;;4944042;28;20036;-90
2023/08/15 06:27:03;;;;;;;7.00;4.93;;;;;;;;;;4958442;28;20054;-91
2023/08/15 06:29:32;;;;;;;6.07;4.82;;;;;;;;;;4968989;28;20030;-91
2023/08/15 06:32:00;;;;;;;9.85;5.60;;;;;;;;;;4970982;28;20041;-90
2023/08/15 06:34:27;;;;;;;9.20;4.93;;;;;;;;;;4959934;28;20045;-90
2023/08/15 06:36:57;;;;;;;6.10;4.40;;;;;;;;;;4955848;29;20055;-93
2023/08/15 06:39:24;;;;;;;10.52;4.68;;;;;;;;;;4933119;29;20039;-91
2023/08/15 06:41:51;;;;;;;5.75;5.00;;;;;;;;;;4945890;29;20055;-92
2023/08/15 06:44:22;;;;;;;10.10;5.05;;;;;;;;;;4950108;29;20047;-92
2023/08/15 06:46:50;;;;;;;8.18;5.32;;;;;;;;;;4945030;29;20043;-92
2023/08/15 06:49:17;;;;;;;6.35;4.60;;;;;;;;;;4936830;29;20051;-93
2023/08/15 06:51:45;;;;;;;7.68;4.85;;;;;;;;;;4958945;28;20063;-91
2023/08/15 06:54:14;;;;;;;5.70;4.25;;;;;;;;;;4944989;29;20071;-93
2023/08/15 06:56:42;;;;;;;5.75;4.32;;;;;;;;;;4951570;28;20047;-92
2023/08/15 06:59:09;;;;;;;6.03;4.90;;;;;;;;;;4956956;28;20047;-92
2023/08/15 07:01:40;;;;;;;5.10;4.43;;;;;;;;;;4920812;29;20423;-92
2023/08/15 07:04:08;;;;;;;11.27;5.32;;;;;;;;;;4939293;29;20055;-93
2023/08/15 07:06:35;;;;;;;5.03;4.60;;;;;;;;;;4957478;28;20047;-93
2023/08/15 07:09:02;;;;;;;6.45;4.10;;;;;;;;;;4958057;28;20063;-92
2023/08/15 07:11:33;;;;;;;6.28;4.25;;;;;;;;;;4945822;29;20498;-91
2023/08/15 07:14:00;;;;;;;7.35;4.80;;;;;;;;;;4961510;29;20051;-92
2023/08/15 07:16:28;;;;;;;5.10;3.25;;;;;;;;;;4942967;28;20051;-93
2023/08/15 07:18:56;;;;;;;5.45;3.15;;;;;;;;;;4935934;29;20226;-93
2023/08/15 07:21:27;;;;;;;4.20;3.85;;;;;;;;;;4940645;29;20043;-92
2023/08/15 07:23:55;;;;;;;6.40;3.85;;;;;;;;;;4927101;29;20055;-92
2023/08/15 07:26:24;;;;;;;4.85;3.83;;;;;;;;;;4945974;29;20482;-93
2023/08/15 07:28:54;;;;;;;4.35;3.90;;;;;;;;;;4946290;29;20062;-92
2023/08/15 07:31:21;;;;;;;3.97;3.58;;;;;;;;;;4944228;29;20066;-91
2023/08/15 07:33:53;;;;;;;8.23;3.25;;;;;;;;;;4955245;28;20047;-93
2023/08/15 07:36:23;;;;;;;5.35;3.78;;;;;;;;;;4956113;29;20051;-92
2023/08/15 07:38:53;;;;;;;8.55;4.55;;;;;;;;;;4940419;29;20485;-93
2023/08/15 07:41:25;;;;;;;5.32;3.83;;;;;;;;;;4937362;29;20062;-93
2023/08/15 07:43:55;;;;;;;7.07;3.65;;;;;;;;;;4950794;29;20041;-91
2023/08/15 07:46:23;;;;;;;15.15;4.45;;;;;;;;;;4945370;29;20067;-93
2023/08/15 07:48:50;;;;;;;4.57;4.18;;;;;;;;;;4936899;29;20059;-92
2023/08/15 07:51:22;;;;;;;6.80;4.18;;;;;;;;;;4962793;29;20220;-93
2023/08/15 07:53:49;;;;;;;8.52;4.10;;;;;;;;;;4958287;28;20051;-93
2023/08/15 07:56:16;;;;;;;8.13;4.32;;;;;;;;;;4942249;29;20062;-94
2023/08/15 07:58:46;;;;;;;4.90;3.50;;;;;;;;;;4931065;29;20054;-92
2023/08/15 08:01:16;;;;;;;10.18;3.47;;;;;;;;;;4945307;29;20062;-93
2023/08/15 08:03:43;;;;;;;4.50;3.40;;;;;;;;;;4950472;28;20059;-93
2023/08/15 08:06:13;;;;;;;3.60;3.28;;;;;;;;;;4942036;29;20063;-93
2023/08/15 08:08:42;;;;;;;3.72;3.13;;;;;;;;;;4935158;29;20058;-93
2023/08/15 08:11:09;;;;;;;5.28;3.03;;;;;;;;;;4939872;29;20051;-93
2023/08/15 08:13:36;;;;;;;6.72;3.05;;;;;;;;;;4964453;28;20062;-93
2023/08/15 08:16:04;;;;;;;6.13;3.90;;;;;;;;;;4942033;29;20086;-93
2023/08/15 08:18:32;;;;;;;3.75;3.00;;;;;;;;;;4932991;28;20047;-93
2023/08/15 08:21:02;;;;;;;4.95;3.10;;;;;;;;;;4946294;29;20046;-94
2023/08/15 08:23:29;;;;;;;4.05;3.15;;;;;;;;;;4951455;28;20051;-93
2023/08/15 08:25:58;;;;;;;6.25;3.88;;;;;;;;;;4946394;29;20502;-92
2023/08/15 08:28:26;;;;;;;3.97;3.40;;;;;;;;;;4972797;28;20042;-93
2023/08/15 08:30:54;;;;;;;8.18;3.03;;;;;;;;;;4923987;29;20055;-93
2023/08/15 08:33:23;;;;;;;4.18;3.63;;;;;;;;;;4946707;28;20062;-92
2023/08/15 08:35:51;;;;;;;6.05;2.75;;;;;;;;;;4931518;29;20051;-92
2023/08/15 08:38:21;;;;;;;3.03;2.70;;;;;;;;;;4934780;28;20059;-93
2023/08/15 08:40:49;;;;;;;3.78;3.28;;;;;;;;;;4960480;29;20111;-93
2023/08/15 08:43:18;;;;;;;7.70;3.40;;;;;;;;;;4931243;28;20051;-91
2023/08/15 08:45:48;;;;;;;4.80;3.40;;;;;;;;;;4945834;29;20062;-93
2023/08/15 08:48:17;;;;;;;2.92;2.55;;;;;;;;;;4945118;28;20031;-92
2023/08/15 08:50:49;;;;;;;7.45;3.22;;;;;;;;;;4944219;29;20046;-93
2023/08/15 08:53:16;;;;;;;5.68;2.95;;;;;;;;;;4943340;28;20043;-92
2023/08/15 08:55:48;;;;;;;4.88;2.70;;;;;;;;;;4947021;29;20067;-93
2023/08/15 08:58:19;;;;;;;4.13;3.15;;;;;;;;;;4967177;28;20051;-93
2023/08/15 09:00:50;;;;;;;3.10;2.80;;;;;;;;;;4931297;29;20051;-93
2023/08/15 09:03:17;;;;;;;3.70;3.40;;;;;;;;;;4942221;29;20078;-92
2023/08/15 09:05:45;;;;;;;3.85;2.95;;;;;;;;;;4955635;29;20727;-91
2023/08/15 09:08:14;;;;;;;5.15;2.80;;;;;;;;;;4944592;29;20059;-92
2023/08/15 09:10:42;;;;;;;4.72;3.25;;;;;;;;;;4954513;29;20043;-93
2023/08/15 09:13:09;;;;;;;7.63;2.83;;;;;;;;;;4957283;29;20058;-92
2023/08/15 09:15:49;;;;;;;4.43;3.50;;;;;;;;;;4941174;29;20070;-92
2023/08/15 09:18:16;;;;;;;3.47;3.03;;;;;;;;;;4958072;28;20055;-92
2023/08/15 09:20:45;;;;;;;4.60;3.55;;;;;;;;;;4922745;29;20047;-94
2023/08/15 09:23:16;;;;;;;3.60;3.23;;;;;;;;;;4925642;29;20062;-92
2023/08/15 09:25:43;;;;;;;5.82;2.92;;;;;;;;;;4935268;29;20059;-94
2023/08/15 09:28:11;;;;;;;4.75;3.00;;;;;;;;;;4923723;28;20055;-92
2023/08/15 09:30:51;;;;;;;6.70;3.10;;;;;;;;;;4933381;29;20040;-93
2023/08/15 09:33:18;;;;;;;5.05;3.05;;;;;;;;;;4940595;28;20051;-93
2023/08/15 09:35:48;;;;;;;3.47;3.17;;;;;;;;;;4919387;29;20056;-92
2023/08/15 09:38:16;;;;;;;6.32;3.65;;;;;;;;;;4957426;28;20070;-93
2023/08/15 09:40:44;;;;;;;3.90;3.40;;;;;;;;;;4918512;29;20047;-93
2023/08/15 09:43:15;;;;;;;3.25;2.95;;;;;;;;;;4942165;29;20416;-92
2023/08/15 09:45:43;;;;;;;7.65;3.97;;;;;;;;;;4953058;28;20051;-93
2023/08/15 09:48:11;;;;;;;4.82;3.33;;;;;;;;;;4960438;28;20066;-91
2023/08/15 09:50:41;;;;;;;4.80;3.55;;;;;;;;;;4945996;29;20047;-94
2023/08/15 09:53:10;;;;;;;3.97;3.58;;;;;;;;;;4959892;29;20050;-93
2023/08/15 09:55:37;;;;;;;3.80;3.50;;;;;;;;;;4929991;29;20446;-93
2023/08/15 09:58:05;;;;;;;4.70;3.72;;;;;;;;;;4936512;29;20062;-93
2023/08/15 10:00:40;;;;;;;3.70;3.40;;;;;;;;;;4927561;29;20414;-94
2023/08/15 10:03:14;;;;;;;3.78;3.35;;;;;;;;;;4943179;29;20067;-93
2023/08/15 10:05:43;;;;;;;5.50;3.40;;;;;;;;;;4938978;29;20062;-92
2023/08/15 10:08:11;;;;;;;5.47;3.17;;;;;;;;;;4954465;29;20480;-92
2023/08/15 10:10:39;;;;;;;6.72;3.40;;;;;;;;;;4959300;28;20039;-94
2023/08/15 10:13:07;;;;;;;4.10;3.63;;;;;;;;;;4942058;29;20074;-93
2023/08/15 10:15:36;;;;;;;3.58;3.28;;;;;;;;;;4949868;29;20057;-91
2023/08/15 10:18:04;;;;;;;6.75;4.47;;;;;;;;;;4942501;29;20055;-93
2023/08/15 10:20:37;;;;;;;4.95;3.70;;;;;;;;;;4927884;28;20051;-93
2023/08/15 10:23:07;;;;;;;4.97;3.80;;;;;;;;;;4929220;29;20051;-94
2023/08/15 10:25:39;;;;;;;4.47;4.05;;;;;;;;;;4953673;29;20051;-93
2023/08/15 10:28:09;;;;;;;4.47;3.67;;;;;;;;;;4940854;29;20341;-93
2023/08/15 10:30:46;;;;;;;5.95;4.45;;;;;;;;;;4960283;28;20040;-90
2023/08/15 10:33:18;;;;;;;8.40;4.07;;;;;;;;;;4962284;28;20050;-91
2023/08/15 10:36:06;;;;;;;5.72;3.40;;;;;;;;;;4948625;29;20055;-93
2023/08/15 10:38:40;;;;;;;4.00;3.60;;;;;;;;;;4955735;28;20137;-93
2023/08/15 10:41:13;;;;;;;9.00;5.07;;;;;;;;;;4924149;29;20089;-93
2023/08/15 10:43:48;;;;;;;5.10;4.15;;;;;;;;;;4928388;29;20054;-93
2023/08/15 10:46:17;;;;;;;4.95;4.35;;;;;;;;;;4942901;29;20054;-92
2023/08/15 10:48:49;;;;;;;4.43;4.03;;;;;;;;;;4937581;28;20059;-93
2023/08/15 10:51:22;;;;;;;4.75;4.25;;;;;;;;;;4962746;28;20047;-93
2023/08/15 10:53:49;;;;;;;8.93;4.07;;;;;;;;;;4937176;29;20062;-92
2023/08/15 10:56:22;;;;;;;7.25;5.45;;;;;;;;;;4944154;29;20055;-92
2023/08/15 10:58:50;;;;;;;5.28;4.30;;;;;;;;;;4926998;29;20529;-93
2023/08/15 11:01:18;;;;;;;5.40;4.40;;;;;;;;;;4941743;29;20548;-93
2023/08/15 11:03:47;;;;;;;3.88;3.53;;;;;;;;;;4959871;29;20079;-92
2023/08/15 11:06:17;;;;;;;4.78;3.75;;;;;;;;;;4943626;29;20051;-92
2023/08/15 11:08:49;;;;;;;5.03;3.47;;;;;;;;;;4953222;28;20047;-92
2023/08/15 11:11:17;;;;;;;4.72;4.25;;;;;;;;;;4930366;29;20062;-92
2023/08/15 11:13:47;;;;;;;4.15;3.75;;;;;;;;;;4939954;29;20055;-92
2023/08/15 11:16:32;;;;;;;6.10;4.45;;;;;;;;;;4917885;29;20051;-93
2023/08/15 11:19:02;;;;;;;4.45;3.95;;;;;;;;;;4934480;28;20054;-93
2023/08/15 11:21:29;;;;;;;5.13;4.65;;;;;;;;;;4956934;28;20047;-93
2023/08/15 11:24:00;;;;;;;9.27;4.13;;;;;;;;;;4955951;28;20050;-92
2023/08/15 11:26:32;;;;;;;3.88;3.50;;;;;;;;;;4932819;28;20522;-92
2023/08/15 11:29:00;;;;;;;6.15;3.55;;;;;;;;;;4939310;28;20062;-92
2023/08/15 11:31:28;;;;;;;4.85;3.67;;;;;;;;;;4952482;29;20051;-92
2023/08/15 11:33:59;;;;;;;3.47;3.10;;;;;;;;;;4940248;28;20053;-92
2023/08/15 11:36:26;;;;;;;4.95;3.88;;;;;;;;;;4954097;28;20051;-92
2023/08/15 11:38:56;;;;;;;4.60;3.35;;;;;;;;;;4930827;28;20406;-93
2023/08/15 11:41:25;;;;;;;4.93;3.83;;;;;;;;;;4937214;29;20054;-92
2023/08/15 11:43:53;;;;;;;4.13;3.72;;;;;;;;;;4949765;28;20063;-92
2023/08/15 11:46:20;;;;;;;6.00;3.88;;;;;;;;;;4938815;28;20055;-92
2023/08/15 11:48:50;;;;;;;6.45;3.72;;;;;;;;;;4948781;29;20510;-93
2023/08/15 11:51:21;;;;;;;4.13;3.47;;;;;;;;;;4937410;29;20044;-92
2023/08/15 11:53:52;;;;;;;6.30;4.00;;;;;;;;;;4954346;28;20051;-92
2023/08/15 11:56:20;;;;;;;6.90;4.50;;;;;;;;;;4940534;28;20051;-93
2023/08/15 11:58:49;;;;;;;5.60;4.25;;;;;;;;;;4918936;29;20051;-92
2023/08/15 12:01:16;;;;;;;5.65;4.15;;;;;;;;;;4934749;29;20060;-93
2023/08/15 12:03:46;;;;;;;6.07;4.75;;;;;;;;;;4957060;28;20051;-94
2023/08/15 12:06:16;;;;;;;4.78;4.13;;;;;;;;;;4932988;29;20056;-93
2023/08/15 12:08:46;;;;;;;7.80;4.20;;;;;;;;;;4948154;29;20521;-93
2023/08/15 12:11:14;;;;;;;6.32;3.80;;;;;;;;;;4949483;29;20059;-93
2023/08/15 12:13:42;;;;;;;11.52;4.13;;;;;;;;;;4957322;28;20051;-92
2023/08/15 12:16:13;;;;;;;5.25;4.00;;;;;;;;;;4948324;28;20522;-92
2023/08/15 12:18:43;;;;;;;4.55;4.03;;;;;;;;;;4949349;29;20045;-93
2023/08/15 12:21:19;;;;;;;4.75;4.22;;;;;;;;;;4943543;29;20055;-93
2023/08/15 12:23:46;;;;;;;8.70;4.32;;;;;;;;;;4949222;29;20058;-93
2023/08/15 12:26:14;;;;;;;6.25;4.97;;;;;;;;;;4942479;29;20059;-92
2023/08/15 12:28:41;;;;;;;6.03;4.80;;;;;;;;;;4926653;29;20060;-93
2023/08/15 12:31:21;;;;;;;6.55;4.35;;;;;;;;;;4947647;29;20071;-93
2023/08/15 12:34:15;;;;;;;5.90;4.88;;;;;;;;;;4968078;28;20052;-93
2023/08/15 12:36:43;;;;;;;5.22;4.72;;;;;;;;;;4964242;28;20051;-92
2023/08/15 12:39:10;;;;;;;7.45;4.38;;;;;;;;;;4948296;29;20070;-94
2023/08/15 12:41:37;;;;;;;5.13;4.57;;;;;;;;;;4932728;29;20055;-94
2023/08/15 12:44:05;;;;;;;5.93;4.82;;;;;;;;;;4964770;29;20059;-92
2023/08/15 12:46:32;;;;;;;5.97;4.18;;;;;;;;;;4947829;28;20062;-92
2023/08/15 12:49:17;;;;;;;6.47;4.28;;;;;;;;;;4952913;29;20059;-94
2023/08/15 12:52:14;;;;;;;8.68;4.95;;;;;;;;;;4961753;28;20062;-92
2023/08/15 12:54:41;;;;;;;4.70;4.20;;;;;;;;;;4962738;28;20051;-94
2023/08/15 12:57:09;;;;;;;7.10;4.40;;;;;;;;;;4958426;28;20051;-93
2023/08/15 12:59:39;;;;;;;4.65;4.05;;;;;;;;;;4961170;28;20038;-94
2023/08/15 13:02:08;;;;;;;4.80;3.92;;;;;;;;;;4950451;29;20051;-92
2023/08/15 13:04:35;;;;;;;8.40;4.22;;;;;;;;;;4951394;28;20065;-92
2023/08/15 13:07:06;;;;;;;6.47;4.57;;;;;;;;;;4944944;29;20048;-94
2023/08/15 13:09:36;;;;;;;4.93;4.10;;;;;;;;;;4931383;28;20055;-93
2023/08/15 13:12:04;;;;;;;5.75;4.70;;;;;;;;;;4959789;29;20044;-93
2023/08/15 13:14:44;;;;;;;3.92;3.53;;;;;;;;;;4941239;28;20058;-92
2023/08/15 13:17:36;;;;;;;8.30;4.28;;;;;;;;;;4940264;29;20055;-93
2023/08/15 13:20:07;;;;;;;4.45;4.05;;;;;;;;;;4913993;29;20050;-93
2023/08/15 13:22:39;;;;;;;6.88;3.92;;;;;;;;;;4932957;29;20043;-94
2023/08/15 13:25:09;;;;;;;4.10;3.65;;;;;;;;;;4929653;29;20442;-93
2023/08/15 13:27:36;;;;;;;4.32;3.28;;;;;;;;;;4917326;29;20074;-92
2023/08/15 13:30:04;;;;;;;4.35;3.38;;;;;;;;;;4938759;28;20047;-94
2023/08/15 13:32:36;;;;;;;5.30;3.67;;;;;;;;;;4936978;28;20056;-93
2023/08/15 13:35:04;;;;;;;8.18;3.90;;;;;;;;;;4920591;28;20051;-93
2023/08/15 13:37:32;;;;;;;4.95;3.83;;;;;;;;;;4932179;29;20051;-93
2023/08/15 13:39:59;;;;;;;3.05;2.70;;;;;;;;;;4938445;28;20062;-93
2023/08/15 13:42:28;;;;;;;5.68;3.20;;;;;;;;;;4950453;28;20050;-93
2023/08/15 13:44:55;;;;;;;5.70;3.58;;;;;;;;;;4938119;28;20051;-92
2023/08/15 13:47:23;;;;;;;4.43;3.88;;;;;;;;;;4951387;28;20510;-93
2023/08/15 13:49:54;;;;;;;4.65;4.22;;;;;;;;;;4920667;28;20060;-93
2023/08/15 13:52:21;;;;;;;5.50;3.55;;;;;;;;;;4940854;29;20048;-93
2023/08/15 13:54:51;;;;;;;4.90;4.07;;;;;;;;;;4932800;29;20047;-94
2023/08/15 13:57:18;;;;;;;3.40;2.97;;;;;;;;;;4955633;29;20431;-92
2023/08/15 13:59:49;;;;;;;4.15;3.28;;;;;;;;;;4924532;29;20054;-92
2023/08/15 14:02:16;;;;;;;3.65;3.05;;;;;;;;;;4956308;28;20059;-93
2023/08/15 14:04:46;;;;;;;8.55;3.47;;;;;;;;;;4937720;29;20055;-91
2023/08/15 14:07:14;;;;;;;3.58;2.67;;;;;;;;;;4948293;29;20048;-93
2023/08/15 14:09:41;;;;;;;3.42;2.67;;;;;;;;;;4932938;29;20043;-93
2023/08/15 14:12:09;;;;;;;5.53;3.10;;;;;;;;;;4937325;29;20066;-93
2023/08/15 14:14:38;;;;;;;5.05;3.42;;;;;;;;;;4918469;28;20051;-93
2023/08/15 14:17:09;;;;;;;3.97;2.63;;;;;;;;;;4938426;29;20066;-93
2023/08/15 14:19:40;;;;;;;3.13;2.58;;;;;;;;;;4933716;29;20058;-93
2023/08/15 14:22:07;;;;;;;6.20;3.45;;;;;;;;;;4919858;29;20144;-92
2023/08/15 14:24:35;;;;;;;4.90;3.53;;;;;;;;;;4926462;28;20058;-92
2023/08/15 14:27:03;;;;;;;4.55;3.13;;;;;;;;;;4943116;29;20137;-92
2023/08/15 14:29:32;;;;;;;3.20;2.90;;;;;;;;;;4930158;29;20059;-91
2023/08/15 14:32:01;;;;;;;4.40;3.05;;;;;;;;;;4948323;28;20058;-93
2023/08/15 14:34:30;;;;;;;4.18;2.70;;;;;;;;;;4927207;28;20052;-92
2023/08/15 14:36:57;;;;;;;3.10;2.88;;;;;;;;;;4938718;29;20055;-92
2023/08/15 14:39:27;;;;;;;5.43;3.55;;;;;;;;;;4928676;29;20047;-92
2023/08/15 14:41:57;;;;;;;8.98;3.90;;;;;;;;;;4944163;28;20066;-92
2023/08/15 14:44:24;;;;;;;4.47;3.92;;;;;;;;;;4948089;28;20047;-92
2023/08/15 14:46:56;;;;;;;;;;;;;;;;;;4916927;29;20051;-93
2023/08/15 14:49:24;;;;;;;2.95;2.58;;;;;;;;;;4931586;29;19922;-93
2023/08/15 14:51:55;;;;;;;4.25;3.00;;;;;;;;;;4950056;28;20055;-92
2023/08/15 14:54:22;;;;;;;3.42;2.67;;;;;;;;;;4954008;28;20054;-92